sensor_id;sensor_type;location;lat;lon;timestamp;temperature;humidity
37300;DHT22;23184;51.902;12.836;2023-11-21T00:01:35;7.50;99.90
37300;DHT22;23184;51.902;12.836;2023-11-21T00:04:01;7.40;99.90
37300;DHT22;23184;51.902;12.836;2023-11-21T00:06:27;7.40;99.90
37300;DHT22;23184;51.902;12.836;2023-11-21T00:08:52;7.40;99.90
37300;DHT22;23184;51.902;12.836;2023-11-21T00:11:18;7.40;99.90
37300;DHT22;23184;51.902;12.836;2023-11-21T00:13:43;7.40;99.90
37300;DHT22;23184;51.902;12.836;2023-11-21T00:16:09;7.40;99.90
37300;DHT22;23184;51.902;12.836;2023-11-21T00:18:34;7.30;99.90
37300;DHT22;23184;51.902;12.836;2023-11-21T00:21:01;7.30;99.90
37300;DHT22;23184;51.902;12.836;2023-11-21T00:23:26;7.30;99.90
37300;DHT22;23184;51.902;12.836;2023-11-21T00:25:52;7.30;99.90
37300;DHT22;23184;51.902;12.836;2023-11-21T00:30:43;7.30;99.90
37300;DHT22;23184;51.902;12.836;2023-11-21T00:33:09;7.30;99.90
37300;DHT22;23184;51.902;12.836;2023-11-21T00:35:34;7.30;99.90
37300;DHT22;23184;51.902;12.836;2023-11-21T00:38:00;7.30;99.90
37300;DHT22;23184;51.902;12.836;2023-11-21T00:40:25;7.30;99.90
37300;DHT22;23184;51.902;12.836;2023-11-21T00:42:51;7.30;99.90
37300;DHT22;23184;51.902;12.836;2023-11-21T00:45:17;7.20;99.90
37300;DHT22;23184;51.902;12.836;2023-11-21T00:47:42;7.20;99.90
37300;DHT22;23184;51.902;12.836;2023-11-21T00:50:08;7.20;99.90
37300;DHT22;23184;51.902;12.836;2023-11-21T00:52:35;7.20;99.90
37300;DHT22;23184;51.902;12.836;2023-11-21T00:55:01;7.20;99.90
37300;DHT22;23184;51.902;12.836;2023-11-21T00:57:28;7.20;99.90
37300;DHT22;23184;51.902;12.836;2023-11-21T00:59:54;7.20;99.90
37300;DHT22;23184;51.902;12.836;2023-11-21T01:02:20;7.20;99.90
37300;DHT22;23184;51.902;12.836;2023-11-21T01:04:45;7.20;99.90
37300;DHT22;23184;51.902;12.836;2023-11-21T01:07:11;7.20;99.90
37300;DHT22;23184;51.902;12.836;2023-11-21T01:09:36;7.20;99.90
37300;DHT22;23184;51.902;12.836;2023-11-21T01:12:02;7.20;99.90
37300;DHT22;23184;51.902;12.836;2023-11-21T01:14:27;7.20;99.90
37300;DHT22;23184;51.902;12.836;2023-11-21T01:16:53;7.30;99.90
37300;DHT22;23184;51.902;12.836;2023-11-21T01:19:19;7.20;99.90
37300;DHT22;23184;51.902;12.836;2023-11-21T01:21:44;7.20;99.90
37300;DHT22;23184;51.902;12.836;2023-11-21T01:24:10;7.20;99.90
37300;DHT22;23184;51.902;12.836;2023-11-21T01:26:35;7.20;99.90
37300;DHT22;23184;51.902;12.836;2023-11-21T01:29:01;7.20;99.90
37300;DHT22;23184;51.902;12.836;2023-11-21T01:31:26;7.20;99.90
37300;DHT22;23184;51.902;12.836;2023-11-21T01:33:55;7.30;99.90
37300;DHT22;23184;51.902;12.836;2023-11-21T01:36:21;7.20;99.90
37300;DHT22;23184;51.902;12.836;2023-11-21T01:38:47;7.30;99.90
37300;DHT22;23184;51.902;12.836;2023-11-21T01:41:14;7.30;99.90
37300;DHT22;23184;51.902;12.836;2023-11-21T01:43:39;7.30;99.90
37300;DHT22;23184;51.902;12.836;2023-11-21T01:46:05;7.30;99.90
37300;DHT22;23184;51.902;12.836;2023-11-21T01:48:32;7.30;99.90
37300;DHT22;23184;51.902;12.836;2023-11-21T01:50:58;7.30;99.90
37300;DHT22;23184;51.902;12.836;2023-11-21T01:53:27;7.30;99.90
37300;DHT22;23184;51.902;12.836;2023-11-21T01:55:55;7.30;99.90
37300;DHT22;23184;51.902;12.836;2023-11-21T01:58:21;7.30;99.90
37300;DHT22;23184;51.902;12.836;2023-11-21T02:00:47;7.20;99.90
37300;DHT22;23184;51.902;12.836;2023-11-21T02:03:16;7.20;99.90
37300;DHT22;23184;51.902;12.836;2023-11-21T02:05:42;7.20;99.90
37300;DHT22;23184;51.902;12.836;2023-11-21T02:08:07;7.20;99.90
37300;DHT22;23184;51.902;12.836;2023-11-21T02:10:34;7.30;99.90
37300;DHT22;23184;51.902;12.836;2023-11-21T02:13:02;7.20;99.90
37300;DHT22;23184;51.902;12.836;2023-11-21T02:15:28;7.20;99.90
37300;DHT22;23184;51.902;12.836;2023-11-21T02:17:54;7.30;99.90
37300;DHT22;23184;51.902;12.836;2023-11-21T02:20:21;7.30;99.90
37300;DHT22;23184;51.902;12.836;2023-11-21T02:25:14;7.20;99.90
37300;DHT22;23184;51.902;12.836;2023-11-21T02:27:40;7.20;99.90
37300;DHT22;23184;51.902;12.836;2023-11-21T02:30:06;7.30;99.90
37300;DHT22;23184;51.902;12.836;2023-11-21T02:32:33;7.20;99.90
37300;DHT22;23184;51.902;12.836;2023-11-21T02:34:59;7.20;99.90
37300;DHT22;23184;51.902;12.836;2023-11-21T02:37:27;7.20;99.90
37300;DHT22;23184;51.902;12.836;2023-11-21T02:39:53;7.20;99.90
37300;DHT22;23184;51.902;12.836;2023-11-21T02:45:40;7.20;99.90
37300;DHT22;23184;51.902;12.836;2023-11-21T02:48:07;7.20;99.90
37300;DHT22;23184;51.902;12.836;2023-11-21T02:50:32;7.20;99.90
37300;DHT22;23184;51.902;12.836;2023-11-21T02:52:58;7.20;99.90
37300;DHT22;23184;51.902;12.836;2023-11-21T02:55:26;7.10;99.90
37300;DHT22;23184;51.902;12.836;2023-11-21T02:57:52;7.20;99.90
37300;DHT22;23184;51.902;12.836;2023-11-21T03:00:17;7.10;99.90
37300;DHT22;23184;51.902;12.836;2023-11-21T03:02:43;7.10;99.90
37300;DHT22;23184;51.902;12.836;2023-11-21T03:05:09;7.20;99.90
37300;DHT22;23184;51.902;12.836;2023-11-21T03:07:37;7.20;99.90
37300;DHT22;23184;51.902;12.836;2023-11-21T03:10:02;7.20;99.90
37300;DHT22;23184;51.902;12.836;2023-11-21T03:12:29;7.20;99.90
37300;DHT22;23184;51.902;12.836;2023-11-21T03:14:55;7.20;99.90
37300;DHT22;23184;51.902;12.836;2023-11-21T03:17:20;7.20;99.90
37300;DHT22;23184;51.902;12.836;2023-11-21T03:19:46;7.20;99.90
37300;DHT22;23184;51.902;12.836;2023-11-21T03:22:12;7.20;99.90
37300;DHT22;23184;51.902;12.836;2023-11-21T03:24:37;7.20;99.90
37300;DHT22;23184;51.902;12.836;2023-11-21T03:27:04;7.20;99.90
37300;DHT22;23184;51.902;12.836;2023-11-21T03:29:29;7.20;99.90
37300;DHT22;23184;51.902;12.836;2023-11-21T03:31:55;7.30;99.90
37300;DHT22;23184;51.902;12.836;2023-11-21T03:34:26;7.30;99.90
37300;DHT22;23184;51.902;12.836;2023-11-21T03:36:52;7.30;99.90
37300;DHT22;23184;51.902;12.836;2023-11-21T03:39:19;7.30;99.90
37300;DHT22;23184;51.902;12.836;2023-11-21T03:41:44;7.30;99.90
37300;DHT22;23184;51.902;12.836;2023-11-21T03:44:10;7.30;99.90
37300;DHT22;23184;51.902;12.836;2023-11-21T03:46:35;7.30;99.90
37300;DHT22;23184;51.902;12.836;2023-11-21T03:49:01;7.30;99.90
37300;DHT22;23184;51.902;12.836;2023-11-21T03:51:27;7.30;99.90
37300;DHT22;23184;51.902;12.836;2023-11-21T03:53:52;7.40;99.90
37300;DHT22;23184;51.902;12.836;2023-11-21T03:56:18;7.40;99.90
37300;DHT22;23184;51.902;12.836;2023-11-21T03:58:43;7.40;99.90
37300;DHT22;23184;51.902;12.836;2023-11-21T04:01:09;7.40;99.90
37300;DHT22;23184;51.902;12.836;2023-11-21T04:03:34;7.40;99.90
37300;DHT22;23184;51.902;12.836;2023-11-21T04:06:00;7.40;99.90
37300;DHT22;23184;51.902;12.836;2023-11-21T04:08:26;7.40;99.90
37300;DHT22;23184;51.902;12.836;2023-11-21T04:10:51;7.40;99.90
37300;DHT22;23184;51.902;12.836;2023-11-21T04:13:19;7.50;99.90
37300;DHT22;23184;51.902;12.836;2023-11-21T04:15:44;7.50;99.90
37300;DHT22;23184;51.902;12.836;2023-11-21T04:18:10;7.50;99.90
37300;DHT22;23184;51.902;12.836;2023-11-21T04:20:35;7.50;99.90
37300;DHT22;23184;51.902;12.836;2023-11-21T04:23:01;7.50;99.90
37300;DHT22;23184;51.902;12.836;2023-11-21T04:25:26;7.60;99.90
37300;DHT22;23184;51.902;12.836;2023-11-21T04:27:53;7.60;99.90
37300;DHT22;23184;51.902;12.836;2023-11-21T04:30:19;7.60;99.90
37300;DHT22;23184;51.902;12.836;2023-11-21T04:32:46;7.70;99.90
37300;DHT22;23184;51.902;12.836;2023-11-21T04:35:11;7.60;99.90
37300;DHT22;23184;51.902;12.836;2023-11-21T04:37:37;7.60;99.90
37300;DHT22;23184;51.902;12.836;2023-11-21T04:40:03;7.70;99.90
37300;DHT22;23184;51.902;12.836;2023-11-21T04:42:36;7.70;99.90
37300;DHT22;23184;51.902;12.836;2023-11-21T04:45:03;7.70;99.90
37300;DHT22;23184;51.902;12.836;2023-11-21T04:47:32;7.70;99.90
37300;DHT22;23184;51.902;12.836;2023-11-21T04:49:58;7.70;99.90
37300;DHT22;23184;51.902;12.836;2023-11-21T04:52:23;7.70;99.90
37300;DHT22;23184;51.902;12.836;2023-11-21T04:54:49;7.70;99.90
37300;DHT22;23184;51.902;12.836;2023-11-21T04:57:14;7.60;99.90
37300;DHT22;23184;51.902;12.836;2023-11-21T04:59:43;7.50;99.90
37300;DHT22;23184;51.902;12.836;2023-11-21T05:02:08;7.40;99.90
37300;DHT22;23184;51.902;12.836;2023-11-21T05:04:34;7.30;99.90
37300;DHT22;23184;51.902;12.836;2023-11-21T05:06:59;7.20;99.90
37300;DHT22;23184;51.902;12.836;2023-11-21T05:09:26;7.20;99.90
37300;DHT22;23184;51.902;12.836;2023-11-21T05:11:54;7.10;99.90
37300;DHT22;23184;51.902;12.836;2023-11-21T05:14:19;7.00;99.90
37300;DHT22;23184;51.902;12.836;2023-11-21T05:16:45;7.00;99.90
37300;DHT22;23184;51.902;12.836;2023-11-21T05:19:11;6.90;99.90
37300;DHT22;23184;51.902;12.836;2023-11-21T05:21:38;6.90;99.90
37300;DHT22;23184;51.902;12.836;2023-11-21T05:24:04;6.90;99.90
37300;DHT22;23184;51.902;12.836;2023-11-21T05:26:30;6.80;99.90
37300;DHT22;23184;51.902;12.836;2023-11-21T05:28:56;6.80;99.90
37300;DHT22;23184;51.902;12.836;2023-11-21T05:31:21;6.80;99.90
37300;DHT22;23184;51.902;12.836;2023-11-21T05:33:47;6.80;99.90
37300;DHT22;23184;51.902;12.836;2023-11-21T05:36:14;6.70;99.90
37300;DHT22;23184;51.902;12.836;2023-11-21T05:38:39;6.70;99.90
37300;DHT22;23184;51.902;12.836;2023-11-21T05:41:05;6.60;99.90
37300;DHT22;23184;51.902;12.836;2023-11-21T05:43:30;6.70;99.90
37300;DHT22;23184;51.902;12.836;2023-11-21T05:45:57;6.70;99.90
37300;DHT22;23184;51.902;12.836;2023-11-21T05:48:23;6.70;99.90
37300;DHT22;23184;51.902;12.836;2023-11-21T05:50:49;6.60;99.90
37300;DHT22;23184;51.902;12.836;2023-11-21T05:53:17;6.60;99.90
37300;DHT22;23184;51.902;12.836;2023-11-21T05:55:43;6.60;99.90
37300;DHT22;23184;51.902;12.836;2023-11-21T05:58:08;6.60;99.90
37300;DHT22;23184;51.902;12.836;2023-11-21T06:00:34;6.60;99.90
37300;DHT22;23184;51.902;12.836;2023-11-21T06:03:00;6.60;99.90
37300;DHT22;23184;51.902;12.836;2023-11-21T06:05:26;6.60;99.90
37300;DHT22;23184;51.902;12.836;2023-11-21T06:07:53;6.50;99.90
37300;DHT22;23184;51.902;12.836;2023-11-21T06:10:23;6.40;99.90
37300;DHT22;23184;51.902;12.836;2023-11-21T06:12:49;6.40;99.90
37300;DHT22;23184;51.902;12.836;2023-11-21T06:15:15;6.40;99.90
37300;DHT22;23184;51.902;12.836;2023-11-21T06:17:42;6.40;99.90
37300;DHT22;23184;51.902;12.836;2023-11-21T06:20:10;6.30;99.90
37300;DHT22;23184;51.902;12.836;2023-11-21T06:22:41;6.30;99.90
37300;DHT22;23184;51.902;12.836;2023-11-21T06:25:07;6.30;99.90
37300;DHT22;23184;51.902;12.836;2023-11-21T06:27:44;6.20;99.90
37300;DHT22;23184;51.902;12.836;2023-11-21T06:30:10;6.30;99.90
37300;DHT22;23184;51.902;12.836;2023-11-21T06:32:37;6.20;99.90
37300;DHT22;23184;51.902;12.836;2023-11-21T06:35:04;6.30;99.90
37300;DHT22;23184;51.902;12.836;2023-11-21T06:37:31;6.20;99.90
37300;DHT22;23184;51.902;12.836;2023-11-21T06:39:57;6.20;99.90
37300;DHT22;23184;51.902;12.836;2023-11-21T06:42:24;6.20;99.90
37300;DHT22;23184;51.902;12.836;2023-11-21T06:44:50;6.20;99.90
37300;DHT22;23184;51.902;12.836;2023-11-21T06:47:27;6.20;99.90
37300;DHT22;23184;51.902;12.836;2023-11-21T06:49:54;6.20;99.90
37300;DHT22;23184;51.902;12.836;2023-11-21T06:52:20;6.20;99.90
37300;DHT22;23184;51.902;12.836;2023-11-21T06:54:47;6.10;99.90
37300;DHT22;23184;51.902;12.836;2023-11-21T06:57:13;6.20;99.90
37300;DHT22;23184;51.902;12.836;2023-11-21T06:59:39;6.10;99.90
37300;DHT22;23184;51.902;12.836;2023-11-21T07:02:04;6.10;99.90
37300;DHT22;23184;51.902;12.836;2023-11-21T07:04:33;6.10;99.90
37300;DHT22;23184;51.902;12.836;2023-11-21T07:06:59;6.10;99.90
37300;DHT22;23184;51.902;12.836;2023-11-21T07:09:25;6.00;99.90
37300;DHT22;23184;51.902;12.836;2023-11-21T07:11:54;6.00;99.90
37300;DHT22;23184;51.902;12.836;2023-11-21T07:14:20;6.00;99.90
37300;DHT22;23184;51.902;12.836;2023-11-21T07:16:46;6.00;99.90
37300;DHT22;23184;51.902;12.836;2023-11-21T07:19:12;5.90;99.90
37300;DHT22;23184;51.902;12.836;2023-11-21T07:21:38;5.90;99.90
37300;DHT22;23184;51.902;12.836;2023-11-21T07:24:05;5.90;99.90
37300;DHT22;23184;51.902;12.836;2023-11-21T07:26:32;5.90;99.90
37300;DHT22;23184;51.902;12.836;2023-11-21T07:28:59;5.90;99.90
37300;DHT22;23184;51.902;12.836;2023-11-21T07:31:24;5.80;99.90
37300;DHT22;23184;51.902;12.836;2023-11-21T07:33:50;5.70;99.90
37300;DHT22;23184;51.902;12.836;2023-11-21T07:36:16;5.70;99.90
37300;DHT22;23184;51.902;12.836;2023-11-21T07:38:44;5.70;99.90
37300;DHT22;23184;51.902;12.836;2023-11-21T07:41:10;5.60;99.90
37300;DHT22;23184;51.902;12.836;2023-11-21T07:43:36;5.70;99.90
37300;DHT22;23184;51.902;12.836;2023-11-21T07:46:03;5.60;99.90
37300;DHT22;23184;51.902;12.836;2023-11-21T07:48:32;5.60;99.90
37300;DHT22;23184;51.902;12.836;2023-11-21T07:50:58;5.60;99.90
37300;DHT22;23184;51.902;12.836;2023-11-21T07:53:24;5.60;99.90
37300;DHT22;23184;51.902;12.836;2023-11-21T07:55:51;5.60;99.90
37300;DHT22;23184;51.902;12.836;2023-11-21T07:58:17;5.60;99.90
37300;DHT22;23184;51.902;12.836;2023-11-21T08:00:43;5.60;99.90
37300;DHT22;23184;51.902;12.836;2023-11-21T08:03:08;5.60;99.90
37300;DHT22;23184;51.902;12.836;2023-11-21T08:05:34;5.60;99.90
37300;DHT22;23184;51.902;12.836;2023-11-21T08:08:00;5.60;99.90
37300;DHT22;23184;51.902;12.836;2023-11-21T08:10:25;5.60;99.90
37300;DHT22;23184;51.902;12.836;2023-11-21T08:12:51;5.60;99.90
37300;DHT22;23184;51.902;12.836;2023-11-21T08:15:17;5.60;99.90
37300;DHT22;23184;51.902;12.836;2023-11-21T08:17:42;5.60;99.90
37300;DHT22;23184;51.902;12.836;2023-11-21T08:20:08;5.60;99.90
37300;DHT22;23184;51.902;12.836;2023-11-21T08:22:36;5.70;99.90
37300;DHT22;23184;51.902;12.836;2023-11-21T08:25:02;5.70;99.90
37300;DHT22;23184;51.902;12.836;2023-11-21T08:27:29;5.70;99.90
37300;DHT22;23184;51.902;12.836;2023-11-21T08:29:55;5.70;99.90
37300;DHT22;23184;51.902;12.836;2023-11-21T08:32:21;5.60;99.90
37300;DHT22;23184;51.902;12.836;2023-11-21T08:34:47;5.60;99.90
37300;DHT22;23184;51.902;12.836;2023-11-21T08:37:16;5.60;99.90
37300;DHT22;23184;51.902;12.836;2023-11-21T08:39:43;5.60;99.90
37300;DHT22;23184;51.902;12.836;2023-11-21T08:42:08;5.60;99.90
37300;DHT22;23184;51.902;12.836;2023-11-21T08:44:34;5.60;99.90
37300;DHT22;23184;51.902;12.836;2023-11-21T08:46:59;5.60;99.90
37300;DHT22;23184;51.902;12.836;2023-11-21T08:49:25;5.60;99.90
37300;DHT22;23184;51.902;12.836;2023-11-21T08:51:53;5.60;99.90
37300;DHT22;23184;51.902;12.836;2023-11-21T08:54:20;5.60;99.90
37300;DHT22;23184;51.902;12.836;2023-11-21T08:56:46;5.60;99.90
37300;DHT22;23184;51.902;12.836;2023-11-21T08:59:12;5.60;99.90
37300;DHT22;23184;51.902;12.836;2023-11-21T09:01:40;5.50;99.90
37300;DHT22;23184;51.902;12.836;2023-11-21T09:04:06;5.50;99.90
37300;DHT22;23184;51.902;12.836;2023-11-21T09:06:31;5.50;99.90
37300;DHT22;23184;51.902;12.836;2023-11-21T09:08:57;5.50;99.90
37300;DHT22;23184;51.902;12.836;2023-11-21T09:11:23;5.50;99.90
37300;DHT22;23184;51.902;12.836;2023-11-21T09:13:50;5.50;99.90
37300;DHT22;23184;51.902;12.836;2023-11-21T09:16:16;5.50;99.90
37300;DHT22;23184;51.902;12.836;2023-11-21T09:18:42;5.40;99.90
37300;DHT22;23184;51.902;12.836;2023-11-21T09:21:08;5.50;99.90
37300;DHT22;23184;51.902;12.836;2023-11-21T09:23:35;5.50;99.90
37300;DHT22;23184;51.902;12.836;2023-11-21T09:26:00;5.50;99.90
37300;DHT22;23184;51.902;12.836;2023-11-21T09:28:26;5.40;99.90
37300;DHT22;23184;51.902;12.836;2023-11-21T09:30:55;5.40;99.90
37300;DHT22;23184;51.902;12.836;2023-11-21T09:33:21;5.40;99.90
37300;DHT22;23184;51.902;12.836;2023-11-21T09:35:48;5.40;99.90
37300;DHT22;23184;51.902;12.836;2023-11-21T09:38:14;5.40;99.90
37300;DHT22;23184;51.902;12.836;2023-11-21T09:40:40;5.40;99.90
37300;DHT22;23184;51.902;12.836;2023-11-21T09:43:09;5.40;99.90
37300;DHT22;23184;51.902;12.836;2023-11-21T09:45:48;5.40;99.90
37300;DHT22;23184;51.902;12.836;2023-11-21T09:48:19;5.50;99.90
37300;DHT22;23184;51.902;12.836;2023-11-21T09:50:47;5.50;99.90
37300;DHT22;23184;51.902;12.836;2023-11-21T09:53:21;5.60;99.90
37300;DHT22;23184;51.902;12.836;2023-11-21T09:55:49;5.50;99.90
37300;DHT22;23184;51.902;12.836;2023-11-21T09:58:17;5.50;99.90
37300;DHT22;23184;51.902;12.836;2023-11-21T10:00:48;5.60;99.90
37300;DHT22;23184;51.902;12.836;2023-11-21T10:03:15;5.60;99.90
37300;DHT22;23184;51.902;12.836;2023-11-21T10:05:43;5.60;99.90
37300;DHT22;23184;51.902;12.836;2023-11-21T10:08:12;5.60;99.90
37300;DHT22;23184;51.902;12.836;2023-11-21T10:10:45;5.60;99.90
37300;DHT22;23184;51.902;12.836;2023-11-21T10:13:12;5.50;99.90
37300;DHT22;23184;51.902;12.836;2023-11-21T10:15:38;5.60;99.90
37300;DHT22;23184;51.902;12.836;2023-11-21T10:18:09;5.60;99.90
37300;DHT22;23184;51.902;12.836;2023-11-21T10:20:35;5.60;99.90
37300;DHT22;23184;51.902;12.836;2023-11-21T10:23:03;5.70;99.90
37300;DHT22;23184;51.902;12.836;2023-11-21T10:25:30;5.70;99.90
37300;DHT22;23184;51.902;12.836;2023-11-21T10:28:01;5.70;99.90
37300;DHT22;23184;51.902;12.836;2023-11-21T10:30:37;5.80;99.90
37300;DHT22;23184;51.902;12.836;2023-11-21T10:33:04;5.90;99.90
37300;DHT22;23184;51.902;12.836;2023-11-21T10:35:42;5.90;99.90
37300;DHT22;23184;51.902;12.836;2023-11-21T10:38:08;6.00;99.90
37300;DHT22;23184;51.902;12.836;2023-11-21T10:40:41;6.10;99.90
37300;DHT22;23184;51.902;12.836;2023-11-21T10:43:09;6.20;99.90
37300;DHT22;23184;51.902;12.836;2023-11-21T10:45:36;6.30;99.90
37300;DHT22;23184;51.902;12.836;2023-11-21T10:48:09;6.30;99.90
37300;DHT22;23184;51.902;12.836;2023-11-21T10:50:36;6.40;99.90
37300;DHT22;23184;51.902;12.836;2023-11-21T10:53:03;6.40;99.90
37300;DHT22;23184;51.902;12.836;2023-11-21T10:55:30;6.50;99.90
37300;DHT22;23184;51.902;12.836;2023-11-21T10:57:58;6.50;99.90
37300;DHT22;23184;51.902;12.836;2023-11-21T11:00:26;6.50;99.90
37300;DHT22;23184;51.902;12.836;2023-11-21T11:02:52;6.40;99.90
37300;DHT22;23184;51.902;12.836;2023-11-21T11:05:23;6.30;99.90
37300;DHT22;23184;51.902;12.836;2023-11-21T11:07:59;6.30;99.90
37300;DHT22;23184;51.902;12.836;2023-11-21T11:10:27;6.20;99.90
37300;DHT22;23184;51.902;12.836;2023-11-21T11:12:55;6.10;99.90
37300;DHT22;23184;51.902;12.836;2023-11-21T11:15:21;6.10;99.90
37300;DHT22;23184;51.902;12.836;2023-11-21T11:17:48;6.00;99.90
37300;DHT22;23184;51.902;12.836;2023-11-21T11:20:15;6.00;99.90
37300;DHT22;23184;51.902;12.836;2023-11-21T11:23:13;5.90;99.90
37300;DHT22;23184;51.902;12.836;2023-11-21T11:26:09;5.90;99.90
37300;DHT22;23184;51.902;12.836;2023-11-21T11:31:45;5.80;99.90
37300;DHT22;23184;51.902;12.836;2023-11-21T11:34:23;5.80;99.90
37300;DHT22;23184;51.902;12.836;2023-11-21T11:37:03;5.80;99.90
37300;DHT22;23184;51.902;12.836;2023-11-21T11:39:29;5.80;99.90
37300;DHT22;23184;51.902;12.836;2023-11-21T11:42:02;5.80;99.90
37300;DHT22;23184;51.902;12.836;2023-11-21T11:47:15;5.70;99.90
37300;DHT22;23184;51.902;12.836;2023-11-21T11:50:11;5.70;99.90
37300;DHT22;23184;51.902;12.836;2023-11-21T11:52:46;5.70;99.90
37300;DHT22;23184;51.902;12.836;2023-11-21T11:55:14;5.60;99.90
37300;DHT22;23184;51.902;12.836;2023-11-21T11:57:42;5.60;99.90
37300;DHT22;23184;51.902;12.836;2023-11-21T12:02:57;5.60;99.90
37300;DHT22;23184;51.902;12.836;2023-11-21T12:05:25;5.60;99.90
37300;DHT22;23184;51.902;12.836;2023-11-21T12:08:03;5.60;99.90
37300;DHT22;23184;51.902;12.836;2023-11-21T12:10:34;5.70;99.90
37300;DHT22;23184;51.902;12.836;2023-11-21T12:13:10;5.70;99.90
37300;DHT22;23184;51.902;12.836;2023-11-21T12:15:39;5.70;99.90
37300;DHT22;23184;51.902;12.836;2023-11-21T12:18:07;5.70;99.90
37300;DHT22;23184;51.902;12.836;2023-11-21T12:20:33;5.60;99.90
37300;DHT22;23184;51.902;12.836;2023-11-21T12:23:05;5.50;99.90
37300;DHT22;23184;51.902;12.836;2023-11-21T12:25:31;5.50;99.90
37300;DHT22;23184;51.902;12.836;2023-11-21T12:27:58;5.60;99.90
37300;DHT22;23184;51.902;12.836;2023-11-21T12:30:26;5.60;99.90
37300;DHT22;23184;51.902;12.836;2023-11-21T12:32:55;5.60;99.90
37300;DHT22;23184;51.902;12.836;2023-11-21T12:35:25;5.60;99.90
37300;DHT22;23184;51.902;12.836;2023-11-21T12:37:52;5.50;99.90
37300;DHT22;23184;51.902;12.836;2023-11-21T12:40:19;5.50;99.90
37300;DHT22;23184;51.902;12.836;2023-11-21T12:42:46;5.50;99.90
37300;DHT22;23184;51.902;12.836;2023-11-21T12:45:24;5.50;99.90
37300;DHT22;23184;51.902;12.836;2023-11-21T12:47:57;5.50;99.90
37300;DHT22;23184;51.902;12.836;2023-11-21T12:50:26;5.50;99.90
37300;DHT22;23184;51.902;12.836;2023-11-21T12:53:01;5.50;99.90
37300;DHT22;23184;51.902;12.836;2023-11-21T12:55:30;5.50;99.90
37300;DHT22;23184;51.902;12.836;2023-11-21T12:57:56;5.40;99.90
37300;DHT22;23184;51.902;12.836;2023-11-21T13:00:32;5.50;99.90
37300;DHT22;23184;51.902;12.836;2023-11-21T13:02:59;5.40;99.90
37300;DHT22;23184;51.902;12.836;2023-11-21T13:05:30;5.40;99.90
37300;DHT22;23184;51.902;12.836;2023-11-21T13:07:58;5.40;99.90
37300;DHT22;23184;51.902;12.836;2023-11-21T13:10:25;5.40;99.90
37300;DHT22;23184;51.902;12.836;2023-11-21T13:12:55;5.40;99.90
37300;DHT22;23184;51.902;12.836;2023-11-21T13:15:23;5.40;99.90
37300;DHT22;23184;51.902;12.836;2023-11-21T13:17:50;5.30;99.90
37300;DHT22;23184;51.902;12.836;2023-11-21T13:20:16;5.30;99.90
37300;DHT22;23184;51.902;12.836;2023-11-21T13:22:52;5.30;99.90
37300;DHT22;23184;51.902;12.836;2023-11-21T13:25:30;5.30;99.90
37300;DHT22;23184;51.902;12.836;2023-11-21T13:27:57;5.20;99.90
37300;DHT22;23184;51.902;12.836;2023-11-21T13:30:24;5.20;99.90
37300;DHT22;23184;51.902;12.836;2023-11-21T13:32:59;5.20;99.90
37300;DHT22;23184;51.902;12.836;2023-11-21T13:35:31;5.20;99.90
37300;DHT22;23184;51.902;12.836;2023-11-21T13:38:14;5.10;99.90
37300;DHT22;23184;51.902;12.836;2023-11-21T13:40:46;5.10;99.90
37300;DHT22;23184;51.902;12.836;2023-11-21T13:43:15;5.10;99.90
37300;DHT22;23184;51.902;12.836;2023-11-21T13:45:42;5.10;99.90
37300;DHT22;23184;51.902;12.836;2023-11-21T13:48:09;5.10;99.90
37300;DHT22;23184;51.902;12.836;2023-11-21T13:50:40;5.10;99.90
37300;DHT22;23184;51.902;12.836;2023-11-21T13:53:14;5.10;99.90
37300;DHT22;23184;51.902;12.836;2023-11-21T13:55:50;5.10;99.90
37300;DHT22;23184;51.902;12.836;2023-11-21T13:58:17;5.10;99.90
37300;DHT22;23184;51.902;12.836;2023-11-21T14:00:49;5.10;99.90
37300;DHT22;23184;51.902;12.836;2023-11-21T14:03:22;5.10;99.90
37300;DHT22;23184;51.902;12.836;2023-11-21T14:05:57;5.10;99.90
37300;DHT22;23184;51.902;12.836;2023-11-21T14:08:25;5.10;99.90
37300;DHT22;23184;51.902;12.836;2023-11-21T14:10:54;5.10;99.90
37300;DHT22;23184;51.902;12.836;2023-11-21T14:13:23;5.10;99.90
37300;DHT22;23184;51.902;12.836;2023-11-21T14:15:50;5.10;99.90
37300;DHT22;23184;51.902;12.836;2023-11-21T14:18:26;5.10;99.90
37300;DHT22;23184;51.902;12.836;2023-11-21T14:21:16;5.10;99.90
37300;DHT22;23184;51.902;12.836;2023-11-21T14:23:42;5.10;99.90
37300;DHT22;23184;51.902;12.836;2023-11-21T14:26:08;5.10;99.90
37300;DHT22;23184;51.902;12.836;2023-11-21T14:28:34;5.10;99.90
37300;DHT22;23184;51.902;12.836;2023-11-21T14:31:01;5.00;99.90
37300;DHT22;23184;51.902;12.836;2023-11-21T14:33:27;5.00;99.90
37300;DHT22;23184;51.902;12.836;2023-11-21T14:35:52;5.00;99.90
37300;DHT22;23184;51.902;12.836;2023-11-21T14:38:18;5.00;99.90
37300;DHT22;23184;51.902;12.836;2023-11-21T14:40:44;4.90;99.90
37300;DHT22;23184;51.902;12.836;2023-11-21T14:43:09;4.90;99.90
37300;DHT22;23184;51.902;12.836;2023-11-21T14:45:35;4.90;99.90
37300;DHT22;23184;51.902;12.836;2023-11-21T14:48:01;4.80;99.90
37300;DHT22;23184;51.902;12.836;2023-11-21T14:50:29;4.80;99.90
37300;DHT22;23184;51.902;12.836;2023-11-21T14:53:09;4.70;99.90
37300;DHT22;23184;51.902;12.836;2023-11-21T14:55:36;4.70;99.90
37300;DHT22;23184;51.902;12.836;2023-11-21T14:58:04;4.70;99.90
37300;DHT22;23184;51.902;12.836;2023-11-21T15:00:30;4.60;99.90
37300;DHT22;23184;51.902;12.836;2023-11-21T15:02:59;4.60;99.90
37300;DHT22;23184;51.902;12.836;2023-11-21T15:05:25;4.60;99.90
37300;DHT22;23184;51.902;12.836;2023-11-21T15:07:53;4.60;99.90
37300;DHT22;23184;51.902;12.836;2023-11-21T15:10:22;4.50;99.90
37300;DHT22;23184;51.902;12.836;2023-11-21T15:13:03;4.50;99.90
37300;DHT22;23184;51.902;12.836;2023-11-21T15:15:29;4.50;99.90
37300;DHT22;23184;51.902;12.836;2023-11-21T15:17:57;4.50;99.90
37300;DHT22;23184;51.902;12.836;2023-11-21T15:20:22;4.40;99.90
37300;DHT22;23184;51.902;12.836;2023-11-21T15:22:48;4.40;99.90
37300;DHT22;23184;51.902;12.836;2023-11-21T15:25:14;4.40;99.90
37300;DHT22;23184;51.902;12.836;2023-11-21T15:27:39;4.40;99.90
37300;DHT22;23184;51.902;12.836;2023-11-21T15:30:07;4.30;99.90
37300;DHT22;23184;51.902;12.836;2023-11-21T15:32:32;4.30;99.90
37300;DHT22;23184;51.902;12.836;2023-11-21T15:34:58;4.30;99.90
37300;DHT22;23184;51.902;12.836;2023-11-21T15:37:23;4.30;99.90
37300;DHT22;23184;51.902;12.836;2023-11-21T15:39:51;4.30;99.90
37300;DHT22;23184;51.902;12.836;2023-11-21T15:42:17;4.40;99.90
37300;DHT22;23184;51.902;12.836;2023-11-21T15:44:42;4.40;99.90
37300;DHT22;23184;51.902;12.836;2023-11-21T15:47:08;4.40;99.90
37300;DHT22;23184;51.902;12.836;2023-11-21T15:49:34;4.40;99.90